createdAt,value
2018-03-26T00:02:27.881Z,10.00
2018-03-26T00:05:00.380Z,10.00
2018-03-26T00:10:04.711Z,10.00
2018-03-26T00:12:38.511Z,10.00
2018-03-26T00:15:15.882Z,10.00
2018-03-26T00:17:49.442Z,10.10
2018-03-26T00:20:24.131Z,10.10
2018-03-26T00:22:55.981Z,10.10
2018-03-26T00:25:28.362Z,10.10
2018-03-26T00:27:58.991Z,10.10
2018-03-26T00:30:30.873Z,10.10
2018-03-26T00:33:05.885Z,10.00
2018-03-26T00:35:37.532Z,10.00
2018-03-26T00:38:09.126Z,10.00
2018-03-26T00:40:48.622Z,10.00
2018-03-26T00:43:33.181Z,10.00
2018-03-26T00:46:06.060Z,9.90
2018-03-26T00:48:38.262Z,9.90
2018-03-26T00:51:12.071Z,9.90
2018-03-26T00:53:47.281Z,9.80
2018-03-26T00:56:27.142Z,9.90
2018-03-26T00:58:58.582Z,9.90
2018-03-26T01:01:32.691Z,9.80
2018-03-26T01:04:06.926Z,9.80
2018-03-26T01:06:42.141Z,9.90
2018-03-26T01:09:15.924Z,9.90
2018-03-26T01:11:47.501Z,9.90
2018-03-26T01:14:18.684Z,9.80
2018-03-26T01:19:29.220Z,9.80
2018-03-26T01:22:02.611Z,9.80
2018-03-26T01:24:37.652Z,9.80
2018-03-26T01:27:14.012Z,9.70
2018-03-26T01:29:47.711Z,9.60
2018-03-26T01:32:21.621Z,9.50
2018-03-26T01:34:53.791Z,9.40
2018-03-26T01:37:25.542Z,9.50
2018-03-26T01:40:00.171Z,9.50
2018-03-26T01:42:37.772Z,9.50
2018-03-26T01:45:13.723Z,9.60
2018-03-26T01:47:47.891Z,9.50
2018-03-26T01:50:26.561Z,9.50
2018-03-26T01:53:00.572Z,9.40
2018-03-26T01:55:38.371Z,9.40
2018-03-26T01:58:12.371Z,9.40
2018-03-26T02:03:17.422Z,9.40
2018-03-26T02:05:51.021Z,9.30
2018-03-26T02:08:23.191Z,9.40
2018-03-26T02:10:54.542Z,9.40
2018-03-26T02:13:36.233Z,9.40
2018-03-26T02:16:07.961Z,9.30
2018-03-26T02:18:40.352Z,9.30
2018-03-26T02:21:16.212Z,9.40
2018-03-26T02:23:48.822Z,9.40
2018-03-26T02:26:20.653Z,9.30
2018-03-26T02:28:53.932Z,9.40
2018-03-26T02:31:25.178Z,9.40
2018-03-26T02:34:02.387Z,9.50
2018-03-26T02:36:34.021Z,9.50
2018-03-26T02:39:06.742Z,9.40
2018-03-26T02:41:39.892Z,9.40
2018-03-26T02:44:11.583Z,9.40
2018-03-26T02:46:43.402Z,9.40
2018-03-26T02:49:16.121Z,9.40
2018-03-26T02:51:47.882Z,9.50
2018-03-26T02:54:20.733Z,9.60
2018-03-26T02:56:55.762Z,9.60
2018-03-26T02:59:30.281Z,9.60
2018-03-26T03:02:02.652Z,9.60
2018-03-26T03:04:34.552Z,9.60
2018-03-26T03:07:17.542Z,9.60
2018-03-26T03:09:49.001Z,9.60
2018-03-26T03:12:19.902Z,9.60
2018-03-26T03:14:52.194Z,9.60
2018-03-26T03:17:26.631Z,9.70
2018-03-26T03:20:07.921Z,9.70
2018-03-26T03:22:41.591Z,9.70
2018-03-26T03:25:15.191Z,9.60
2018-03-26T03:27:46.642Z,9.60
2018-03-26T03:30:18.402Z,9.60
2018-03-26T03:32:50.253Z,9.70
2018-03-26T03:35:22.423Z,9.60
2018-03-26T03:38:00.761Z,9.50
2018-03-26T03:40:31.503Z,9.50
2018-03-26T03:43:04.554Z,9.40
2018-03-26T03:45:40.512Z,9.30
2018-03-26T03:48:11.053Z,9.30
2018-03-26T03:50:53.280Z,9.30
2018-03-26T03:53:26.031Z,9.20
2018-03-26T03:55:59.521Z,9.30
2018-03-26T03:58:33.432Z,9.30
2018-03-26T04:01:04.882Z,9.30
2018-03-26T04:03:37.912Z,9.30
2018-03-26T04:06:10.652Z,9.30
2018-03-26T04:08:52.232Z,9.20
2018-03-26T04:11:24.302Z,9.20
2018-03-26T04:13:58.939Z,9.20
2018-03-26T04:16:33.552Z,9.30
2018-03-26T04:19:07.761Z,9.40
2018-03-26T04:21:43.912Z,9.40
2018-03-26T04:24:18.852Z,9.40
2018-03-26T04:26:51.011Z,9.40
2018-03-26T04:29:21.751Z,9.50
2018-03-26T04:31:54.352Z,9.40
2018-03-26T04:34:29.561Z,9.40
2018-03-26T04:37:00.812Z,9.40
2018-03-26T04:39:31.925Z,9.40
2018-03-26T04:42:04.226Z,9.40
2018-03-26T04:44:39.971Z,9.40
2018-03-26T04:47:13.962Z,9.40
2018-03-26T04:49:45.443Z,9.30
2018-03-26T04:52:19.852Z,9.30
2018-03-26T04:54:54.275Z,9.30
2018-03-26T04:57:27.361Z,9.30
2018-03-26T04:59:58.641Z,9.40
2018-03-26T05:02:30.673Z,9.30
2018-03-26T05:05:02.842Z,9.40
2018-03-26T05:07:35.722Z,9.40
2018-03-26T05:10:12.501Z,9.40
2018-03-26T05:12:47.637Z,9.50
2018-03-26T05:15:22.153Z,9.40
2018-03-26T05:17:58.722Z,9.30
2018-03-26T05:20:29.662Z,9.50
2018-03-26T05:23:03.930Z,9.40
2018-03-26T05:25:37.782Z,9.40
2018-03-26T05:28:09.361Z,9.40
2018-03-26T05:30:45.491Z,9.40
2018-03-26T05:33:23.922Z,9.40
2018-03-26T05:36:11.431Z,9.40
2018-03-26T05:38:43.984Z,9.40
2018-03-26T05:41:16.216Z,9.40
2018-03-26T05:43:49.672Z,9.40
2018-03-26T05:46:30.932Z,9.40
2018-03-26T05:49:05.382Z,9.20
2018-03-26T05:51:39.792Z,9.50
2018-03-26T05:54:12.368Z,9.50
2018-03-26T05:56:47.202Z,9.50
2018-03-26T05:59:19.201Z,9.50
2018-03-26T06:01:52.472Z,9.40
2018-03-26T06:04:32.401Z,9.60
2018-03-26T06:07:06.991Z,9.50
2018-03-26T06:09:38.961Z,9.40
2018-03-26T06:12:13.610Z,9.50
2018-03-26T06:14:47.622Z,9.50
2018-03-26T06:17:18.561Z,9.50
2018-03-26T06:19:52.306Z,9.50
2018-03-26T06:22:24.741Z,9.50
2018-03-26T06:24:58.158Z,9.50
2018-03-26T06:27:29.272Z,9.40
2018-03-26T06:30:02.951Z,9.50
2018-03-26T06:32:40.941Z,9.50
2018-03-26T06:35:13.452Z,9.60
2018-03-26T06:37:57.648Z,9.60
2018-03-26T06:40:31.810Z,9.60
2018-03-26T06:43:04.290Z,9.70
2018-03-26T06:45:37.170Z,9.70
2018-03-26T06:48:09.861Z,9.80
2018-03-26T06:50:41.722Z,9.90
2018-03-26T06:53:14.813Z,9.90
2018-03-26T06:55:47.892Z,9.80
2018-03-26T06:58:21.192Z,9.90
2018-03-26T07:00:54.392Z,10.00
2018-03-26T07:03:26.541Z,10.00
2018-03-26T07:06:00.861Z,10.10
2018-03-26T07:08:33.572Z,10.10
2018-03-26T07:11:05.705Z,10.10
2018-03-26T07:13:37.452Z,10.10
2018-03-26T07:16:08.601Z,10.10
2018-03-26T07:18:43.424Z,10.00
2018-03-26T07:21:17.262Z,10.00
2018-03-26T07:23:55.553Z,9.90
2018-03-26T07:26:27.851Z,10.00
2018-03-26T07:28:58.640Z,9.90
2018-03-26T07:31:31.831Z,10.00
2018-03-26T07:34:02.461Z,9.90
2018-03-26T07:36:33.962Z,10.00
2018-03-26T07:39:06.412Z,10.10
2018-03-26T07:41:41.325Z,10.10
2018-03-26T07:44:13.401Z,10.20
2018-03-26T07:46:45.991Z,10.30
2018-03-26T07:49:18.983Z,10.30
2018-03-26T07:51:53.728Z,10.30
2018-03-26T07:54:27.831Z,10.40
2018-03-26T07:56:58.981Z,10.40
2018-03-26T07:59:30.791Z,10.60
2018-03-26T08:02:02.181Z,10.60
2018-03-26T08:04:34.218Z,10.80
2018-03-26T08:07:09.741Z,10.60
2018-03-26T08:09:44.472Z,10.60
2018-03-26T08:12:15.931Z,10.50
2018-03-26T08:14:48.713Z,10.50
2018-03-26T08:17:22.051Z,10.60
2018-03-26T08:19:53.861Z,10.70
2018-03-26T08:22:25.972Z,10.60
2018-03-26T08:24:59.521Z,10.70
2018-03-26T08:27:31.635Z,10.80
2018-03-26T08:30:02.962Z,10.70
2018-03-26T08:32:35.812Z,10.70
2018-03-26T08:35:08.291Z,10.70
2018-03-26T08:37:43.762Z,10.80
2018-03-26T08:40:15.802Z,10.80
2018-03-26T08:42:46.986Z,11.00
2018-03-26T08:45:20.962Z,11.00
2018-03-26T08:47:52.412Z,11.00
2018-03-26T08:50:28.274Z,11.00
2018-03-26T08:53:02.302Z,11.20
2018-03-26T08:55:36.059Z,11.10
2018-03-26T08:58:10.191Z,11.10
2018-03-26T09:00:45.961Z,11.30
2018-03-26T09:03:18.545Z,11.30
2018-03-26T09:05:50.551Z,11.20
2018-03-26T09:08:22.735Z,11.10
2018-03-26T09:10:54.081Z,11.20
2018-03-26T09:13:25.671Z,11.20
2018-03-26T09:15:57.132Z,11.10
2018-03-26T09:18:28.852Z,11.30
2018-03-26T09:21:00.502Z,11.40
2018-03-26T09:23:32.053Z,11.40
2018-03-26T09:26:03.140Z,11.30
2018-03-26T09:28:35.472Z,11.30
2018-03-26T09:31:07.363Z,11.30
2018-03-26T09:33:39.793Z,11.30
2018-03-26T09:36:12.070Z,11.40
2018-03-26T09:38:43.036Z,11.40
2018-03-26T09:41:15.072Z,11.40
2018-03-26T09:43:46.522Z,11.40
2018-03-26T09:46:18.382Z,11.40
2018-03-26T09:48:52.232Z,11.40
2018-03-26T09:51:24.252Z,11.50
2018-03-26T09:53:56.412Z,11.60
2018-03-26T09:56:28.971Z,11.40
2018-03-26T09:59:01.032Z,11.40
2018-03-26T10:01:33.332Z,11.40
2018-03-26T10:04:08.662Z,11.40
2018-03-26T10:09:14.272Z,11.50
2018-03-26T10:11:46.083Z,11.60
2018-03-26T10:14:17.633Z,11.70
2018-03-26T10:16:50.322Z,11.80
2018-03-26T10:19:29.272Z,11.80
2018-03-26T10:22:00.621Z,11.80
2018-03-26T10:24:33.911Z,11.70
2018-03-26T10:27:06.551Z,11.70
2018-03-26T10:29:47.941Z,11.70
2018-03-26T10:32:22.301Z,11.60
2018-03-26T10:34:55.992Z,11.70
2018-03-26T10:37:27.732Z,11.80
2018-03-26T10:40:02.587Z,11.90
2018-03-26T10:42:33.931Z,11.80
2018-03-26T10:45:05.141Z,12.00
2018-03-26T10:47:37.413Z,11.80
2018-03-26T10:50:15.564Z,11.90
2018-03-26T10:52:49.020Z,11.90
2018-03-26T10:55:23.840Z,11.90
2018-03-26T10:57:57.141Z,12.10
2018-03-26T11:00:30.183Z,12.10
2018-03-26T11:03:01.882Z,12.30
2018-03-26T11:05:33.264Z,12.30
2018-03-26T11:08:05.091Z,12.30
2018-03-26T11:10:35.963Z,12.20
2018-03-26T11:13:10.554Z,12.30
2018-03-26T11:15:45.973Z,12.40
2018-03-26T11:18:17.782Z,12.50
2018-03-26T11:23:25.262Z,12.70
2018-03-26T11:28:29.023Z,12.60
2018-03-26T11:31:01.021Z,12.60
2018-03-26T11:33:33.130Z,12.50
2018-03-26T11:38:39.692Z,13.00
2018-03-26T11:41:11.661Z,13.20
2018-03-26T11:43:42.833Z,13.30
2018-03-26T11:46:15.062Z,13.30
2018-03-26T11:48:46.921Z,13.50
2018-03-26T11:51:21.552Z,13.60
2018-03-26T11:53:53.341Z,13.70
2018-03-26T11:56:24.352Z,13.50
2018-03-26T11:58:57.150Z,13.40
2018-03-26T12:01:30.312Z,13.30
2018-03-26T12:04:02.112Z,13.40
2018-03-26T12:06:33.411Z,13.50
2018-03-26T12:09:08.001Z,13.70
2018-03-26T12:11:40.417Z,13.70
2018-03-26T12:14:11.662Z,13.80
2018-03-26T12:16:47.320Z,13.80
2018-03-26T12:19:19.381Z,13.70
2018-03-26T12:21:53.267Z,13.60
2018-03-26T12:24:38.851Z,13.70
2018-03-26T12:27:10.852Z,13.60
2018-03-26T12:29:53.320Z,13.60
2018-03-26T12:32:26.341Z,13.30
2018-03-26T12:35:09.061Z,13.40
2018-03-26T12:37:41.551Z,13.30
2018-03-26T12:40:24.771Z,13.20
2018-03-26T12:42:56.842Z,13.20
2018-03-26T12:45:44.034Z,13.30
2018-03-26T12:48:15.014Z,13.30
2018-03-26T12:50:57.812Z,13.20
2018-03-26T12:53:33.492Z,13.10
2018-03-26T12:58:47.281Z,13.00
2018-03-26T13:01:29.277Z,13.00
2018-03-26T13:04:01.141Z,13.00
2018-03-26T13:06:32.681Z,12.90
2018-03-26T13:09:07.301Z,12.80
2018-03-26T13:11:39.311Z,12.90
2018-03-26T13:14:14.806Z,12.90
2018-03-26T13:16:46.802Z,12.90
2018-03-26T13:19:18.952Z,12.90
2018-03-26T13:21:51.117Z,13.00
2018-03-26T13:24:25.344Z,13.10
2018-03-26T13:26:57.931Z,13.30
2018-03-26T13:29:32.271Z,13.20
2018-03-26T13:32:03.487Z,13.30
2018-03-26T13:34:38.401Z,13.20
2018-03-26T13:37:09.741Z,13.20
2018-03-26T13:39:42.841Z,13.20
2018-03-26T13:42:14.732Z,13.30
2018-03-26T13:44:52.002Z,13.30
2018-03-26T13:47:24.564Z,13.30
2018-03-26T13:49:58.472Z,13.30
2018-03-26T13:52:31.452Z,13.40
2018-03-26T13:55:03.771Z,13.30
2018-03-26T13:57:36.081Z,13.50
2018-03-26T14:00:07.272Z,13.30
2018-03-26T14:02:39.392Z,13.50
2018-03-26T14:05:10.841Z,13.60
2018-03-26T14:07:42.112Z,13.60
2018-03-26T14:10:26.342Z,13.70
2018-03-26T14:13:13.672Z,13.70
2018-03-26T14:15:57.192Z,13.80
2018-03-26T14:18:31.024Z,13.60
2018-03-26T14:21:02.693Z,13.50
2018-03-26T14:23:33.701Z,13.50
2018-03-26T14:26:05.806Z,12.20
2018-03-26T14:28:37.942Z,13.60
2018-03-26T14:31:11.881Z,13.70
2018-03-26T14:33:45.131Z,13.50
2018-03-26T14:36:16.922Z,13.40
2018-03-26T14:38:51.552Z,13.40
2018-03-26T14:41:30.842Z,13.40
2018-03-26T14:44:04.954Z,13.30
2018-03-26T14:46:41.462Z,13.30
2018-03-26T14:49:14.101Z,13.30
2018-03-26T14:51:47.390Z,13.40
2018-03-26T14:54:19.983Z,13.40
2018-03-26T14:56:55.043Z,13.30
2018-03-26T14:59:26.011Z,13.30
2018-03-26T15:01:58.820Z,13.20
2018-03-26T15:04:30.587Z,13.40
2018-03-26T15:07:05.661Z,13.10
2018-03-26T15:09:38.821Z,12.90
2018-03-26T15:12:12.061Z,12.90
2018-03-26T15:14:44.001Z,12.80
2018-03-26T15:17:19.513Z,12.80
2018-03-26T15:19:50.141Z,12.70
2018-03-26T15:22:24.881Z,12.70
2018-03-26T15:25:00.097Z,12.70
2018-03-26T15:27:34.207Z,12.80
2018-03-26T15:32:38.963Z,12.70
2018-03-26T15:35:11.535Z,12.60
2018-03-26T15:37:45.130Z,12.80
2018-03-26T15:40:17.020Z,12.70
2018-03-26T15:42:49.042Z,12.80
2018-03-26T15:47:52.782Z,12.70
2018-03-26T15:50:27.503Z,12.50
2018-03-26T15:53:10.421Z,12.40
2018-03-26T15:55:42.323Z,12.30
2018-03-26T15:58:13.462Z,12.30
2018-03-26T16:00:46.072Z,12.10
2018-03-26T16:06:02.031Z,12.00
2018-03-26T16:11:28.702Z,12.00
2018-03-26T16:14:07.575Z,11.80
2018-03-26T16:16:39.272Z,11.80
2018-03-26T16:22:17.581Z,11.60
2018-03-26T16:24:50.190Z,11.60
2018-03-26T16:27:26.642Z,11.70
2018-03-26T16:32:30.461Z,11.40
2018-03-26T16:35:02.042Z,11.30
2018-03-26T16:37:33.661Z,11.20
2018-03-26T16:40:05.241Z,11.20
2018-03-26T16:42:45.861Z,11.10
2018-03-26T16:45:16.811Z,11.10
2018-03-26T16:47:49.391Z,11.20
2018-03-26T16:50:22.582Z,11.20
2018-03-26T16:52:55.250Z,11.20
2018-03-26T16:55:26.402Z,11.10
2018-03-26T16:57:57.951Z,11.10
2018-03-26T17:00:33.072Z,11.10
2018-03-26T17:03:09.352Z,11.10
2018-03-26T17:05:40.591Z,11.10
2018-03-26T17:08:13.301Z,11.10
2018-03-26T17:10:45.235Z,11.10
2018-03-26T17:13:18.232Z,11.10
2018-03-26T17:21:00.984Z,11.00
2018-03-26T17:23:32.472Z,11.00
2018-03-26T17:26:03.973Z,11.00
2018-03-26T17:28:35.311Z,10.80
2018-03-26T17:33:39.044Z,10.70
2018-03-26T17:36:11.062Z,10.50
2018-03-26T17:38:44.802Z,10.50
2018-03-26T17:41:17.382Z,10.50
2018-03-26T17:43:49.022Z,10.40
2018-03-26T17:46:20.082Z,10.40
2018-03-26T17:48:56.630Z,10.30
2018-03-26T17:51:29.530Z,10.20
2018-03-26T17:54:01.802Z,10.20
2018-03-26T17:56:34.581Z,10.30
2018-03-26T17:59:07.561Z,10.30
2018-03-26T18:01:40.562Z,10.20
2018-03-26T18:04:12.861Z,10.20
2018-03-26T18:06:43.741Z,10.20
2018-03-26T18:09:15.961Z,10.10
2018-03-26T18:11:46.591Z,10.10
2018-03-26T18:14:18.451Z,10.00
2018-03-26T18:16:50.621Z,10.00
2018-03-26T18:19:22.552Z,10.00
2018-03-26T18:22:01.982Z,9.90
2018-03-26T18:24:34.652Z,9.80
2018-03-26T18:27:07.842Z,9.70
2018-03-26T18:29:39.800Z,9.60
2018-03-26T18:32:12.802Z,9.50
2018-03-26T18:34:47.012Z,9.60
2018-03-26T18:37:19.703Z,9.70
2018-03-26T18:39:53.072Z,9.70
2018-03-26T18:42:24.731Z,9.80
2018-03-26T18:44:59.771Z,9.80
2018-03-26T18:47:32.162Z,9.80
2018-03-26T18:50:07.521Z,9.80
2018-03-26T18:52:39.441Z,9.80
2018-03-26T18:55:11.721Z,9.80
2018-03-26T18:57:45.422Z,9.80
2018-03-26T19:00:18.091Z,9.70
2018-03-26T19:02:50.611Z,9.70
2018-03-26T19:05:21.832Z,9.70
2018-03-26T19:07:53.881Z,9.60
2018-03-26T19:10:28.062Z,9.40
2018-03-26T19:13:02.422Z,9.60
2018-03-26T19:15:34.583Z,9.60
2018-03-26T19:18:05.422Z,9.60
2018-03-26T19:20:38.301Z,9.60
2018-03-26T19:23:11.292Z,9.60
2018-03-26T19:25:43.553Z,9.80
2018-03-26T19:28:15.962Z,9.80
2018-03-26T19:30:51.132Z,9.70
2018-03-26T19:33:22.811Z,9.80
2018-03-26T19:38:26.862Z,9.70
2018-03-26T19:41:07.072Z,9.70
2018-03-26T19:43:39.413Z,9.60
2018-03-26T19:48:52.611Z,9.60
2018-03-26T19:53:59.206Z,9.60
2018-03-26T19:56:30.173Z,9.60
2018-03-26T19:59:00.903Z,9.60
2018-03-26T20:01:31.623Z,9.60
2018-03-26T20:04:02.952Z,9.60
2018-03-26T20:06:35.263Z,9.60
2018-03-26T20:09:09.572Z,9.70
2018-03-26T20:14:16.343Z,9.70
2018-03-26T20:16:47.265Z,9.80
2018-03-26T20:19:19.431Z,9.80
2018-03-26T20:21:51.511Z,9.70
2018-03-26T20:24:22.952Z,9.60
2018-03-26T20:26:57.111Z,9.80
2018-03-26T20:29:30.762Z,9.90
2018-03-26T20:32:06.442Z,9.80
2018-03-26T20:34:38.983Z,9.70
2018-03-26T20:37:10.082Z,9.80
2018-03-26T20:39:42.331Z,9.80
2018-03-26T20:42:16.315Z,9.80
2018-03-26T20:44:55.095Z,9.80
2018-03-26T20:47:27.632Z,9.70
2018-03-26T20:49:59.472Z,9.60
2018-03-26T20:52:31.933Z,9.40
2018-03-26T20:55:03.331Z,9.50
2018-03-26T20:57:38.252Z,9.30
2018-03-26T21:00:10.382Z,9.30
2018-03-26T21:02:41.733Z,9.30
2018-03-26T21:05:14.103Z,9.10
2018-03-26T21:07:46.682Z,9.10
2018-03-26T21:10:18.443Z,9.20
2018-03-26T21:12:50.911Z,8.80
2018-03-26T21:15:23.382Z,8.90
2018-03-26T21:17:55.352Z,8.80
2018-03-26T21:20:28.231Z,8.80
2018-03-26T21:22:59.611Z,8.70
2018-03-26T21:25:31.223Z,8.80
2018-03-26T21:28:07.142Z,8.80
2018-03-26T21:30:42.211Z,8.70
2018-03-26T21:33:17.452Z,8.70
2018-03-26T21:35:51.052Z,8.60
2018-03-26T21:38:23.573Z,8.70
2018-03-26T21:40:54.763Z,8.80
2018-03-26T21:43:28.458Z,8.80
2018-03-26T21:46:02.083Z,8.80
2018-03-26T21:48:35.462Z,8.80
2018-03-26T21:51:07.262Z,8.80
2018-03-26T21:53:40.886Z,8.80
2018-03-26T21:56:13.402Z,8.80
2018-03-26T21:58:47.723Z,8.80
2018-03-26T22:01:22.451Z,8.80
2018-03-26T22:03:56.972Z,8.80
2018-03-26T22:06:28.562Z,8.90
2018-03-26T22:09:00.902Z,8.80
2018-03-26T22:11:32.564Z,8.80
2018-03-26T22:14:04.652Z,8.80
2018-03-26T22:16:37.091Z,8.80
2018-03-26T22:19:08.955Z,8.80
2018-03-26T22:21:41.108Z,8.70
2018-03-26T22:24:13.623Z,8.70
2018-03-26T22:26:47.711Z,8.60
2018-03-26T22:29:20.152Z,8.50
2018-03-26T22:31:52.683Z,8.40
2018-03-26T22:34:25.142Z,8.30
2018-03-26T22:36:56.412Z,8.30
2018-03-26T22:39:28.232Z,8.40
2018-03-26T22:42:00.911Z,8.40
2018-03-26T22:44:34.346Z,8.40
2018-03-26T22:47:05.651Z,8.40
2018-03-26T22:49:37.612Z,8.40
2018-03-26T22:52:10.892Z,8.50
2018-03-26T22:54:42.353Z,8.60
2018-03-26T22:57:15.752Z,8.40
2018-03-26T22:59:48.023Z,8.30
2018-03-26T23:02:20.605Z,8.30
2018-03-26T23:04:53.149Z,8.30
2018-03-26T23:07:25.304Z,8.20
2018-03-26T23:09:57.094Z,8.20
2018-03-26T23:12:28.861Z,8.20
2018-03-26T23:15:01.221Z,8.20
2018-03-26T23:17:33.145Z,8.30
2018-03-26T23:20:04.221Z,8.40
2018-03-26T23:22:52.061Z,8.40
2018-03-26T23:25:26.473Z,8.50
2018-03-26T23:27:57.933Z,8.50
2018-03-26T23:30:29.158Z,8.60
2018-03-26T23:33:01.383Z,8.60
2018-03-26T23:35:33.453Z,8.60
2018-03-26T23:38:10.792Z,8.70
2018-03-26T23:40:42.962Z,8.60
2018-03-26T23:43:15.150Z,8.60
2018-03-26T23:45:45.892Z,8.60
2018-03-26T23:48:19.657Z,8.50
2018-03-26T23:50:51.873Z,8.60
2018-03-26T23:53:25.942Z,8.60
2018-03-26T23:55:57.082Z,8.50
2018-03-26T23:58:29.152Z,8.60
